sensor_id;sensor_type;location;lat;lon;timestamp;P1;durP1;ratioP1;P2;durP2;ratioP2
68803;SDS011;55787;52.678;13.314;2022-10-16T00:00:39;7.30;;;1.90;;
68803;SDS011;55787;52.678;13.314;2022-10-16T00:03:08;7.10;;;1.92;;
68803;SDS011;55787;52.678;13.314;2022-10-16T00:05:39;7.25;;;1.90;;
68803;SDS011;55787;52.678;13.314;2022-10-16T00:08:07;6.78;;;1.92;;
68803;SDS011;55787;52.678;13.314;2022-10-16T00:10:35;7.38;;;2.00;;
68803;SDS011;55787;52.678;13.314;2022-10-16T00:13:02;6.23;;;1.80;;
68803;SDS011;55787;52.678;13.314;2022-10-16T00:15:30;6.38;;;1.80;;
68803;SDS011;55787;52.678;13.314;2022-10-16T00:18:00;6.43;;;1.70;;
68803;SDS011;55787;52.678;13.314;2022-10-16T00:20:26;5.50;;;1.60;;
68803;SDS011;55787;52.678;13.314;2022-10-16T00:22:53;5.80;;;1.75;;
68803;SDS011;55787;52.678;13.314;2022-10-16T00:25:19;5.93;;;1.70;;
68803;SDS011;55787;52.678;13.314;2022-10-16T00:27:46;6.30;;;2.00;;
68803;SDS011;55787;52.678;13.314;2022-10-16T00:30:12;7.47;;;1.90;;
68803;SDS011;55787;52.678;13.314;2022-10-16T00:32:39;7.63;;;1.70;;
68803;SDS011;55787;52.678;13.314;2022-10-16T00:35:06;6.32;;;1.60;;
68803;SDS011;55787;52.678;13.314;2022-10-16T00:37:33;6.70;;;1.83;;
68803;SDS011;55787;52.678;13.314;2022-10-16T00:39:59;6.57;;;1.63;;
68803;SDS011;55787;52.678;13.314;2022-10-16T00:42:26;6.05;;;1.50;;
68803;SDS011;55787;52.678;13.314;2022-10-16T00:44:54;6.30;;;1.60;;
68803;SDS011;55787;52.678;13.314;2022-10-16T00:47:27;6.68;;;1.90;;
68803;SDS011;55787;52.678;13.314;2022-10-16T00:50:02;6.90;;;1.53;;
68803;SDS011;55787;52.678;13.314;2022-10-16T00:52:48;6.25;;;1.67;;
68803;SDS011;55787;52.678;13.314;2022-10-16T00:55:17;6.35;;;1.60;;
68803;SDS011;55787;52.678;13.314;2022-10-16T00:57:45;5.70;;;1.52;;
68803;SDS011;55787;52.678;13.314;2022-10-16T01:00:13;6.10;;;1.65;;
68803;SDS011;55787;52.678;13.314;2022-10-16T01:02:43;6.40;;;1.67;;
68803;SDS011;55787;52.678;13.314;2022-10-16T01:05:09;5.93;;;1.48;;
68803;SDS011;55787;52.678;13.314;2022-10-16T01:07:40;6.55;;;1.65;;
68803;SDS011;55787;52.678;13.314;2022-10-16T01:12:58;6.10;;;1.40;;
68803;SDS011;55787;52.678;13.314;2022-10-16T01:15:32;6.83;;;1.50;;
68803;SDS011;55787;52.678;13.314;2022-10-16T01:20:35;5.88;;;1.58;;
68803;SDS011;55787;52.678;13.314;2022-10-16T01:28:32;6.43;;;1.40;;
68803;SDS011;55787;52.678;13.314;2022-10-16T01:31:05;7.93;;;1.45;;
68803;SDS011;55787;52.678;13.314;2022-10-16T01:33:42;5.70;;;1.30;;
68803;SDS011;55787;52.678;13.314;2022-10-16T01:36:13;6.40;;;1.40;;
68803;SDS011;55787;52.678;13.314;2022-10-16T01:38:47;6.75;;;1.55;;
68803;SDS011;55787;52.678;13.314;2022-10-16T01:41:21;6.23;;;1.50;;
68803;SDS011;55787;52.678;13.314;2022-10-16T01:43:54;5.70;;;1.50;;
68803;SDS011;55787;52.678;13.314;2022-10-16T01:46:27;6.03;;;1.50;;
68803;SDS011;55787;52.678;13.314;2022-10-16T01:48:57;5.95;;;1.50;;
68803;SDS011;55787;52.678;13.314;2022-10-16T01:51:26;6.15;;;1.50;;
68803;SDS011;55787;52.678;13.314;2022-10-16T01:53:57;6.07;;;1.67;;
68803;SDS011;55787;52.678;13.314;2022-10-16T01:56:26;6.18;;;1.40;;
68803;SDS011;55787;52.678;13.314;2022-10-16T01:58:58;5.78;;;1.48;;
68803;SDS011;55787;52.678;13.314;2022-10-16T02:01:31;5.97;;;1.50;;
68803;SDS011;55787;52.678;13.314;2022-10-16T02:04:03;5.90;;;1.27;;
68803;SDS011;55787;52.678;13.314;2022-10-16T02:06:36;6.50;;;1.30;;
68803;SDS011;55787;52.678;13.314;2022-10-16T02:09:03;5.50;;;1.45;;
68803;SDS011;55787;52.678;13.314;2022-10-16T02:11:29;5.30;;;1.30;;
68803;SDS011;55787;52.678;13.314;2022-10-16T02:14:01;8.00;;;1.60;;
68803;SDS011;55787;52.678;13.314;2022-10-16T02:16:41;5.10;;;1.25;;
68803;SDS011;55787;52.678;13.314;2022-10-16T02:19:09;5.53;;;1.40;;
68803;SDS011;55787;52.678;13.314;2022-10-16T02:21:46;5.93;;;1.50;;
68803;SDS011;55787;52.678;13.314;2022-10-16T02:29:55;7.18;;;1.58;;
68803;SDS011;55787;52.678;13.314;2022-10-16T02:32:36;5.30;;;1.40;;
68803;SDS011;55787;52.678;13.314;2022-10-16T02:35:04;6.25;;;1.50;;
68803;SDS011;55787;52.678;13.314;2022-10-16T02:37:32;6.30;;;1.50;;
68803;SDS011;55787;52.678;13.314;2022-10-16T02:40:00;5.90;;;1.50;;
68803;SDS011;55787;52.678;13.314;2022-10-16T02:42:27;6.22;;;1.50;;
68803;SDS011;55787;52.678;13.314;2022-10-16T02:44:58;6.33;;;1.30;;
68803;SDS011;55787;52.678;13.314;2022-10-16T02:47:25;5.15;;;1.30;;
68803;SDS011;55787;52.678;13.314;2022-10-16T02:49:52;5.97;;;1.67;;
68803;SDS011;55787;52.678;13.314;2022-10-16T02:52:19;5.38;;;1.48;;
68803;SDS011;55787;52.678;13.314;2022-10-16T02:54:45;7.07;;;1.40;;
68803;SDS011;55787;52.678;13.314;2022-10-16T02:57:12;7.33;;;1.47;;
68803;SDS011;55787;52.678;13.314;2022-10-16T02:59:38;5.95;;;1.30;;
68803;SDS011;55787;52.678;13.314;2022-10-16T03:02:05;5.90;;;1.65;;
68803;SDS011;55787;52.678;13.314;2022-10-16T03:04:31;5.70;;;1.52;;
68803;SDS011;55787;52.678;13.314;2022-10-16T03:06:58;5.40;;;1.30;;
68803;SDS011;55787;52.678;13.314;2022-10-16T03:09:24;5.93;;;1.37;;
68803;SDS011;55787;52.678;13.314;2022-10-16T03:11:51;6.07;;;1.45;;
68803;SDS011;55787;52.678;13.314;2022-10-16T03:14:18;5.70;;;1.50;;
68803;SDS011;55787;52.678;13.314;2022-10-16T03:16:45;5.78;;;1.35;;
68803;SDS011;55787;52.678;13.314;2022-10-16T03:19:11;6.20;;;1.38;;
68803;SDS011;55787;52.678;13.314;2022-10-16T03:21:38;7.80;;;1.40;;
68803;SDS011;55787;52.678;13.314;2022-10-16T03:24:04;5.93;;;1.30;;
68803;SDS011;55787;52.678;13.314;2022-10-16T03:26:31;5.95;;;1.40;;
68803;SDS011;55787;52.678;13.314;2022-10-16T03:28:58;6.22;;;1.40;;
68803;SDS011;55787;52.678;13.314;2022-10-16T03:31:24;8.77;;;1.48;;
68803;SDS011;55787;52.678;13.314;2022-10-16T03:33:51;5.90;;;1.83;;
68803;SDS011;55787;52.678;13.314;2022-10-16T03:36:17;5.82;;;1.63;;
68803;SDS011;55787;52.678;13.314;2022-10-16T03:38:44;7.75;;;1.60;;
68803;SDS011;55787;52.678;13.314;2022-10-16T03:41:10;5.68;;;1.27;;
68803;SDS011;55787;52.678;13.314;2022-10-16T03:43:37;7.97;;;1.70;;
68803;SDS011;55787;52.678;13.314;2022-10-16T03:46:03;5.90;;;1.60;;
68803;SDS011;55787;52.678;13.314;2022-10-16T03:48:30;6.85;;;2.08;;
68803;SDS011;55787;52.678;13.314;2022-10-16T03:50:58;6.15;;;1.50;;
68803;SDS011;55787;52.678;13.314;2022-10-16T03:53:24;7.75;;;1.50;;
68803;SDS011;55787;52.678;13.314;2022-10-16T03:55:51;7.85;;;1.40;;
68803;SDS011;55787;52.678;13.314;2022-10-16T03:58:18;9.63;;;1.67;;
68803;SDS011;55787;52.678;13.314;2022-10-16T04:00:46;5.90;;;1.48;;
68803;SDS011;55787;52.678;13.314;2022-10-16T04:03:14;6.57;;;1.65;;
68803;SDS011;55787;52.678;13.314;2022-10-16T04:05:40;6.53;;;1.70;;
68803;SDS011;55787;52.678;13.314;2022-10-16T04:08:07;5.80;;;1.50;;
68803;SDS011;55787;52.678;13.314;2022-10-16T04:10:33;6.20;;;1.47;;
68803;SDS011;55787;52.678;13.314;2022-10-16T04:13:00;5.63;;;1.30;;
68803;SDS011;55787;52.678;13.314;2022-10-16T04:15:27;6.45;;;1.58;;
68803;SDS011;55787;52.678;13.314;2022-10-16T04:17:53;6.18;;;1.77;;
68803;SDS011;55787;52.678;13.314;2022-10-16T04:20:20;6.85;;;1.52;;
68803;SDS011;55787;52.678;13.314;2022-10-16T04:22:47;6.23;;;1.50;;
68803;SDS011;55787;52.678;13.314;2022-10-16T04:25:13;6.32;;;1.45;;
68803;SDS011;55787;52.678;13.314;2022-10-16T04:27:40;6.97;;;1.60;;
68803;SDS011;55787;52.678;13.314;2022-10-16T04:30:11;6.10;;;1.70;;
68803;SDS011;55787;52.678;13.314;2022-10-16T04:32:40;6.10;;;1.80;;
68803;SDS011;55787;52.678;13.314;2022-10-16T04:35:07;6.90;;;1.80;;
68803;SDS011;55787;52.678;13.314;2022-10-16T04:37:33;6.78;;;1.60;;
68803;SDS011;55787;52.678;13.314;2022-10-16T04:40:00;7.15;;;1.50;;
68803;SDS011;55787;52.678;13.314;2022-10-16T04:42:27;7.95;;;1.77;;
68803;SDS011;55787;52.678;13.314;2022-10-16T04:44:53;6.03;;;1.60;;
68803;SDS011;55787;52.678;13.314;2022-10-16T04:47:20;7.47;;;2.00;;
68803;SDS011;55787;52.678;13.314;2022-10-16T04:49:46;6.38;;;1.98;;
68803;SDS011;55787;52.678;13.314;2022-10-16T04:52:13;5.88;;;1.48;;
68803;SDS011;55787;52.678;13.314;2022-10-16T04:54:40;7.00;;;1.70;;
68803;SDS011;55787;52.678;13.314;2022-10-16T04:57:06;5.97;;;1.77;;
68803;SDS011;55787;52.678;13.314;2022-10-16T04:59:33;5.93;;;1.80;;
68803;SDS011;55787;52.678;13.314;2022-10-16T05:01:59;5.85;;;1.58;;
68803;SDS011;55787;52.678;13.314;2022-10-16T05:04:26;6.53;;;1.80;;
68803;SDS011;55787;52.678;13.314;2022-10-16T05:06:52;6.30;;;1.48;;
68803;SDS011;55787;52.678;13.314;2022-10-16T05:09:19;6.50;;;1.65;;
68803;SDS011;55787;52.678;13.314;2022-10-16T05:11:46;5.53;;;1.40;;
68803;SDS011;55787;52.678;13.314;2022-10-16T05:14:13;6.07;;;1.65;;
68803;SDS011;55787;52.678;13.314;2022-10-16T05:16:39;6.82;;;1.67;;
68803;SDS011;55787;52.678;13.314;2022-10-16T05:19:05;6.63;;;1.80;;
68803;SDS011;55787;52.678;13.314;2022-10-16T05:21:52;6.47;;;1.80;;
68803;SDS011;55787;52.678;13.314;2022-10-16T05:24:18;6.73;;;1.70;;
68803;SDS011;55787;52.678;13.314;2022-10-16T05:26:45;7.75;;;1.80;;
68803;SDS011;55787;52.678;13.314;2022-10-16T05:29:12;5.97;;;1.60;;
68803;SDS011;55787;52.678;13.314;2022-10-16T05:31:38;5.80;;;1.60;;
68803;SDS011;55787;52.678;13.314;2022-10-16T05:34:05;6.57;;;1.63;;
68803;SDS011;55787;52.678;13.314;2022-10-16T05:36:32;6.20;;;1.60;;
68803;SDS011;55787;52.678;13.314;2022-10-16T05:38:58;6.60;;;1.70;;
68803;SDS011;55787;52.678;13.314;2022-10-16T05:41:25;7.93;;;1.63;;
68803;SDS011;55787;52.678;13.314;2022-10-16T05:43:52;6.50;;;1.58;;
68803;SDS011;55787;52.678;13.314;2022-10-16T05:46:19;7.55;;;2.25;;
68803;SDS011;55787;52.678;13.314;2022-10-16T05:48:46;7.83;;;2.30;;
68803;SDS011;55787;52.678;13.314;2022-10-16T05:51:14;8.43;;;2.50;;
68803;SDS011;55787;52.678;13.314;2022-10-16T05:53:41;6.80;;;2.17;;
68803;SDS011;55787;52.678;13.314;2022-10-16T05:56:13;7.13;;;2.33;;
68803;SDS011;55787;52.678;13.314;2022-10-16T05:58:40;8.00;;;2.50;;
68803;SDS011;55787;52.678;13.314;2022-10-16T06:01:09;8.57;;;2.47;;
68803;SDS011;55787;52.678;13.314;2022-10-16T06:03:38;7.43;;;2.38;;
68803;SDS011;55787;52.678;13.314;2022-10-16T06:06:08;7.20;;;2.60;;
68803;SDS011;55787;52.678;13.314;2022-10-16T06:08:38;7.95;;;2.30;;
68803;SDS011;55787;52.678;13.314;2022-10-16T06:11:05;6.88;;;2.28;;
68803;SDS011;55787;52.678;13.314;2022-10-16T06:13:33;7.40;;;2.43;;
68803;SDS011;55787;52.678;13.314;2022-10-16T06:16:00;7.40;;;2.40;;
68803;SDS011;55787;52.678;13.314;2022-10-16T06:18:28;7.40;;;2.63;;
68803;SDS011;55787;52.678;13.314;2022-10-16T06:20:56;6.95;;;2.53;;
68803;SDS011;55787;52.678;13.314;2022-10-16T06:23:23;6.65;;;2.30;;
68803;SDS011;55787;52.678;13.314;2022-10-16T06:25:50;7.47;;;2.60;;
68803;SDS011;55787;52.678;13.314;2022-10-16T06:28:17;8.65;;;2.50;;
68803;SDS011;55787;52.678;13.314;2022-10-16T06:30:44;7.30;;;2.65;;
68803;SDS011;55787;52.678;13.314;2022-10-16T06:33:13;7.45;;;2.80;;
68803;SDS011;55787;52.678;13.314;2022-10-16T06:35:40;7.90;;;2.42;;
68803;SDS011;55787;52.678;13.314;2022-10-16T06:38:07;6.77;;;2.50;;
68803;SDS011;55787;52.678;13.314;2022-10-16T06:40:33;7.40;;;2.40;;
68803;SDS011;55787;52.678;13.314;2022-10-16T06:43:00;8.32;;;2.88;;
68803;SDS011;55787;52.678;13.314;2022-10-16T06:45:26;7.13;;;2.72;;
68803;SDS011;55787;52.678;13.314;2022-10-16T06:47:53;8.07;;;2.75;;
68803;SDS011;55787;52.678;13.314;2022-10-16T06:50:20;8.70;;;3.60;;
68803;SDS011;55787;52.678;13.314;2022-10-16T06:52:47;7.85;;;2.90;;
68803;SDS011;55787;52.678;13.314;2022-10-16T06:55:14;7.97;;;2.30;;
68803;SDS011;55787;52.678;13.314;2022-10-16T06:57:41;7.07;;;2.58;;
68803;SDS011;55787;52.678;13.314;2022-10-16T07:00:08;7.40;;;2.33;;
68803;SDS011;55787;52.678;13.314;2022-10-16T07:02:35;7.50;;;2.53;;
68803;SDS011;55787;52.678;13.314;2022-10-16T07:05:02;8.60;;;2.58;;
68803;SDS011;55787;52.678;13.314;2022-10-16T07:07:29;8.25;;;2.70;;
68803;SDS011;55787;52.678;13.314;2022-10-16T07:09:55;8.05;;;2.58;;
68803;SDS011;55787;52.678;13.314;2022-10-16T07:12:22;8.05;;;2.50;;
68803;SDS011;55787;52.678;13.314;2022-10-16T07:14:49;7.23;;;2.47;;
68803;SDS011;55787;52.678;13.314;2022-10-16T07:17:18;6.97;;;2.50;;
68803;SDS011;55787;52.678;13.314;2022-10-16T07:19:44;7.35;;;2.28;;
68803;SDS011;55787;52.678;13.314;2022-10-16T07:22:11;8.05;;;2.72;;
68803;SDS011;55787;52.678;13.314;2022-10-16T07:24:38;8.07;;;2.45;;
68803;SDS011;55787;52.678;13.314;2022-10-16T07:27:04;6.57;;;2.00;;
68803;SDS011;55787;52.678;13.314;2022-10-16T07:29:31;6.90;;;2.20;;
68803;SDS011;55787;52.678;13.314;2022-10-16T07:31:57;6.70;;;2.17;;
68803;SDS011;55787;52.678;13.314;2022-10-16T07:34:24;6.60;;;1.92;;
68803;SDS011;55787;52.678;13.314;2022-10-16T07:36:52;8.20;;;3.25;;
68803;SDS011;55787;52.678;13.314;2022-10-16T07:39:19;7.57;;;2.60;;
68803;SDS011;55787;52.678;13.314;2022-10-16T07:41:46;7.07;;;2.50;;
68803;SDS011;55787;52.678;13.314;2022-10-16T07:44:13;11.80;;;4.20;;
68803;SDS011;55787;52.678;13.314;2022-10-16T07:46:39;6.70;;;2.30;;
68803;SDS011;55787;52.678;13.314;2022-10-16T07:49:06;8.20;;;2.33;;
68803;SDS011;55787;52.678;13.314;2022-10-16T07:51:32;6.40;;;2.00;;
68803;SDS011;55787;52.678;13.314;2022-10-16T07:53:59;6.57;;;1.90;;
68803;SDS011;55787;52.678;13.314;2022-10-16T07:56:25;5.93;;;1.95;;
68803;SDS011;55787;52.678;13.314;2022-10-16T07:58:52;6.38;;;1.88;;
68803;SDS011;55787;52.678;13.314;2022-10-16T08:01:19;6.32;;;2.10;;
68803;SDS011;55787;52.678;13.314;2022-10-16T08:03:50;6.57;;;1.93;;
68803;SDS011;55787;52.678;13.314;2022-10-16T08:06:18;6.20;;;1.73;;
68803;SDS011;55787;52.678;13.314;2022-10-16T08:08:53;5.85;;;1.63;;
68803;SDS011;55787;52.678;13.314;2022-10-16T08:11:20;6.07;;;1.80;;
68803;SDS011;55787;52.678;13.314;2022-10-16T08:13:47;6.35;;;1.45;;
68803;SDS011;55787;52.678;13.314;2022-10-16T08:16:13;6.50;;;1.50;;
68803;SDS011;55787;52.678;13.314;2022-10-16T08:18:40;8.77;;;1.45;;
68803;SDS011;55787;52.678;13.314;2022-10-16T08:21:08;7.47;;;1.70;;
68803;SDS011;55787;52.678;13.314;2022-10-16T08:23:47;5.85;;;1.48;;
68803;SDS011;55787;52.678;13.314;2022-10-16T08:26:22;5.95;;;1.80;;
68803;SDS011;55787;52.678;13.314;2022-10-16T08:28:49;5.70;;;1.50;;
68803;SDS011;55787;52.678;13.314;2022-10-16T08:31:17;6.10;;;1.92;;
68803;SDS011;55787;52.678;13.314;2022-10-16T08:33:44;6.20;;;1.65;;
68803;SDS011;55787;52.678;13.314;2022-10-16T08:36:13;6.32;;;1.60;;
68803;SDS011;55787;52.678;13.314;2022-10-16T08:38:41;8.02;;;1.50;;
68803;SDS011;55787;52.678;13.314;2022-10-16T08:41:22;8.47;;;1.50;;
68803;SDS011;55787;52.678;13.314;2022-10-16T08:49:28;5.95;;;1.60;;
68803;SDS011;55787;52.678;13.314;2022-10-16T08:51:56;5.57;;;1.42;;
68803;SDS011;55787;52.678;13.314;2022-10-16T08:54:31;10.47;;;1.87;;
68803;SDS011;55787;52.678;13.314;2022-10-16T08:57:11;6.50;;;1.92;;
68803;SDS011;55787;52.678;13.314;2022-10-16T08:59:46;6.70;;;1.70;;
68803;SDS011;55787;52.678;13.314;2022-10-16T09:02:20;6.22;;;1.40;;
68803;SDS011;55787;52.678;13.314;2022-10-16T09:16:28;5.25;;;1.27;;
68803;SDS011;55787;52.678;13.314;2022-10-16T09:19:05;4.82;;;1.20;;
68803;SDS011;55787;52.678;13.314;2022-10-16T09:21:42;7.53;;;1.30;;
68803;SDS011;55787;52.678;13.314;2022-10-16T09:24:15;5.65;;;1.15;;
68803;SDS011;55787;52.678;13.314;2022-10-16T09:26:50;5.60;;;1.20;;
68803;SDS011;55787;52.678;13.314;2022-10-16T09:29:18;7.93;;;1.20;;
68803;SDS011;55787;52.678;13.314;2022-10-16T09:31:46;5.70;;;1.30;;
68803;SDS011;55787;52.678;13.314;2022-10-16T09:34:20;5.17;;;1.50;;
68803;SDS011;55787;52.678;13.314;2022-10-16T09:37:01;6.15;;;1.60;;
68803;SDS011;55787;52.678;13.314;2022-10-16T09:39:30;6.43;;;1.60;;
68803;SDS011;55787;52.678;13.314;2022-10-16T09:41:56;5.70;;;1.55;;
68803;SDS011;55787;52.678;13.314;2022-10-16T09:44:24;9.25;;;1.30;;
68803;SDS011;55787;52.678;13.314;2022-10-16T09:47:04;6.30;;;1.30;;
68803;SDS011;55787;52.678;13.314;2022-10-16T09:49:56;5.95;;;1.60;;
68803;SDS011;55787;52.678;13.314;2022-10-16T09:52:25;5.20;;;1.42;;
68803;SDS011;55787;52.678;13.314;2022-10-16T09:54:53;4.93;;;1.10;;
68803;SDS011;55787;52.678;13.314;2022-10-16T09:57:24;6.22;;;1.38;;
68803;SDS011;55787;52.678;13.314;2022-10-16T09:59:55;5.40;;;1.30;;
68803;SDS011;55787;52.678;13.314;2022-10-16T10:02:28;6.05;;;1.23;;
68803;SDS011;55787;52.678;13.314;2022-10-16T10:04:57;5.82;;;1.60;;
68803;SDS011;55787;52.678;13.314;2022-10-16T10:07:27;5.88;;;1.38;;
68803;SDS011;55787;52.678;13.314;2022-10-16T10:10:00;5.85;;;1.30;;
68803;SDS011;55787;52.678;13.314;2022-10-16T10:12:32;5.30;;;1.23;;
68803;SDS011;55787;52.678;13.314;2022-10-16T10:15:10;5.97;;;1.20;;
68803;SDS011;55787;52.678;13.314;2022-10-16T10:17:54;5.80;;;1.30;;
68803;SDS011;55787;52.678;13.314;2022-10-16T10:22:54;5.55;;;1.30;;
68803;SDS011;55787;52.678;13.314;2022-10-16T10:29:06;5.28;;;1.25;;
68803;SDS011;55787;52.678;13.314;2022-10-16T10:31:48;7.10;;;1.50;;
68803;SDS011;55787;52.678;13.314;2022-10-16T10:34:41;5.18;;;1.35;;
68803;SDS011;55787;52.678;13.314;2022-10-16T10:37:34;5.32;;;1.20;;
68803;SDS011;55787;52.678;13.314;2022-10-16T10:49:05;6.20;;;1.40;;
68803;SDS011;55787;52.678;13.314;2022-10-16T10:51:46;5.75;;;1.45;;
68803;SDS011;55787;52.678;13.314;2022-10-16T10:54:18;6.50;;;1.60;;
68803;SDS011;55787;52.678;13.314;2022-10-16T10:59:45;5.75;;;1.50;;
68803;SDS011;55787;52.678;13.314;2022-10-16T11:02:26;5.85;;;1.20;;
68803;SDS011;55787;52.678;13.314;2022-10-16T11:07:51;4.90;;;1.10;;
68803;SDS011;55787;52.678;13.314;2022-10-16T11:10:22;6.10;;;1.13;;
68803;SDS011;55787;52.678;13.314;2022-10-16T11:15:45;6.10;;;1.30;;
68803;SDS011;55787;52.678;13.314;2022-10-16T11:18:21;5.30;;;1.40;;
68803;SDS011;55787;52.678;13.314;2022-10-16T11:20:52;5.27;;;1.20;;
68803;SDS011;55787;52.678;13.314;2022-10-16T11:23:24;5.40;;;1.38;;
68803;SDS011;55787;52.678;13.314;2022-10-16T11:25:56;6.10;;;1.50;;
68803;SDS011;55787;52.678;13.314;2022-10-16T11:28:28;5.03;;;1.10;;
68803;SDS011;55787;52.678;13.314;2022-10-16T11:31:21;5.50;;;1.20;;
68803;SDS011;55787;52.678;13.314;2022-10-16T11:41:49;5.82;;;1.00;;
68803;SDS011;55787;52.678;13.314;2022-10-16T11:44:31;5.70;;;1.17;;
68803;SDS011;55787;52.678;13.314;2022-10-16T11:52:51;5.70;;;1.23;;
68803;SDS011;55787;52.678;13.314;2022-10-16T11:55:23;7.15;;;1.40;;
68803;SDS011;55787;52.678;13.314;2022-10-16T11:57:59;6.90;;;1.45;;
68803;SDS011;55787;52.678;13.314;2022-10-16T12:06:10;6.18;;;1.42;;
68803;SDS011;55787;52.678;13.314;2022-10-16T12:08:50;6.78;;;1.30;;
68803;SDS011;55787;52.678;13.314;2022-10-16T12:16:38;7.20;;;1.33;;
68803;SDS011;55787;52.678;13.314;2022-10-16T12:19:18;5.72;;;1.15;;
68803;SDS011;55787;52.678;13.314;2022-10-16T12:21:45;5.00;;;1.20;;
68803;SDS011;55787;52.678;13.314;2022-10-16T12:26:48;5.00;;;1.00;;
68803;SDS011;55787;52.678;13.314;2022-10-16T12:31:59;4.20;;;0.70;;
68803;SDS011;55787;52.678;13.314;2022-10-16T12:34:29;4.85;;;1.00;;
68803;SDS011;55787;52.678;13.314;2022-10-16T12:39:57;6.57;;;1.10;;
68803;SDS011;55787;52.678;13.314;2022-10-16T12:44:52;4.45;;;0.90;;
68803;SDS011;55787;52.678;13.314;2022-10-16T12:47:20;4.18;;;0.88;;
68803;SDS011;55787;52.678;13.314;2022-10-16T12:50:01;6.00;;;0.95;;
68803;SDS011;55787;52.678;13.314;2022-10-16T12:52:37;4.47;;;0.70;;
68803;SDS011;55787;52.678;13.314;2022-10-16T12:55:05;4.53;;;0.70;;
68803;SDS011;55787;52.678;13.314;2022-10-16T12:57:54;4.13;;;0.90;;
68803;SDS011;55787;52.678;13.314;2022-10-16T13:03:31;5.03;;;0.90;;
68803;SDS011;55787;52.678;13.314;2022-10-16T13:06:20;3.70;;;0.60;;
68803;SDS011;55787;52.678;13.314;2022-10-16T13:19:36;3.70;;;0.67;;
68803;SDS011;55787;52.678;13.314;2022-10-16T13:24:58;5.03;;;1.05;;
68803;SDS011;55787;52.678;13.314;2022-10-16T13:30:11;4.35;;;0.70;;
68803;SDS011;55787;52.678;13.314;2022-10-16T13:32:44;5.53;;;0.90;;
68803;SDS011;55787;52.678;13.314;2022-10-16T13:35:31;4.47;;;0.70;;
68803;SDS011;55787;52.678;13.314;2022-10-16T13:38:11;3.85;;;0.50;;
68803;SDS011;55787;52.678;13.314;2022-10-16T13:40:56;3.58;;;0.55;;
68803;SDS011;55787;52.678;13.314;2022-10-16T13:43:32;3.70;;;0.60;;
68803;SDS011;55787;52.678;13.314;2022-10-16T13:46:03;3.70;;;0.70;;
68803;SDS011;55787;52.678;13.314;2022-10-16T13:48:32;3.72;;;0.50;;
68803;SDS011;55787;52.678;13.314;2022-10-16T13:51:03;3.90;;;0.70;;
68803;SDS011;55787;52.678;13.314;2022-10-16T13:53:31;3.42;;;0.50;;
68803;SDS011;55787;52.678;13.314;2022-10-16T13:55:59;5.03;;;0.63;;
68803;SDS011;55787;52.678;13.314;2022-10-16T13:58:26;3.50;;;0.57;;
68803;SDS011;55787;52.678;13.314;2022-10-16T14:00:57;4.18;;;0.52;;
68803;SDS011;55787;52.678;13.314;2022-10-16T14:03:29;3.67;;;0.60;;
68803;SDS011;55787;52.678;13.314;2022-10-16T14:05:57;2.65;;;0.40;;
68803;SDS011;55787;52.678;13.314;2022-10-16T14:08:27;3.83;;;0.43;;
68803;SDS011;55787;52.678;13.314;2022-10-16T14:10:55;3.73;;;0.50;;
68803;SDS011;55787;52.678;13.314;2022-10-16T14:13:34;4.05;;;0.40;;
68803;SDS011;55787;52.678;13.314;2022-10-16T14:16:07;7.07;;;0.43;;
68803;SDS011;55787;52.678;13.314;2022-10-16T14:18:37;3.33;;;0.43;;
68803;SDS011;55787;52.678;13.314;2022-10-16T14:21:06;4.28;;;0.40;;
68803;SDS011;55787;52.678;13.314;2022-10-16T14:23:39;3.10;;;0.40;;
68803;SDS011;55787;52.678;13.314;2022-10-16T14:28:36;4.50;;;0.70;;
68803;SDS011;55787;52.678;13.314;2022-10-16T14:31:19;3.03;;;0.47;;
68803;SDS011;55787;52.678;13.314;2022-10-16T14:33:51;5.45;;;0.60;;
68803;SDS011;55787;52.678;13.314;2022-10-16T14:36:18;3.97;;;0.50;;
68803;SDS011;55787;52.678;13.314;2022-10-16T14:41:25;5.05;;;0.80;;
68803;SDS011;55787;52.678;13.314;2022-10-16T14:43:56;6.50;;;1.17;;
68803;SDS011;55787;52.678;13.314;2022-10-16T14:46:31;4.15;;;0.80;;
68803;SDS011;55787;52.678;13.314;2022-10-16T14:51:38;5.18;;;0.60;;
68803;SDS011;55787;52.678;13.314;2022-10-16T14:54:08;5.47;;;1.83;;
68803;SDS011;55787;52.678;13.314;2022-10-16T14:56:42;5.00;;;1.05;;
68803;SDS011;55787;52.678;13.314;2022-10-16T14:59:13;6.63;;;1.65;;
68803;SDS011;55787;52.678;13.314;2022-10-16T15:01:43;5.30;;;1.47;;
68803;SDS011;55787;52.678;13.314;2022-10-16T15:04:10;6.07;;;1.33;;
68803;SDS011;55787;52.678;13.314;2022-10-16T15:06:40;7.13;;;0.98;;
68803;SDS011;55787;52.678;13.314;2022-10-16T15:09:07;4.85;;;0.80;;
68803;SDS011;55787;52.678;13.314;2022-10-16T15:11:33;4.97;;;0.73;;
68803;SDS011;55787;52.678;13.314;2022-10-16T15:14:03;6.37;;;0.87;;
68803;SDS011;55787;52.678;13.314;2022-10-16T15:16:30;6.90;;;0.90;;
68803;SDS011;55787;52.678;13.314;2022-10-16T15:18:57;5.22;;;0.70;;
68803;SDS011;55787;52.678;13.314;2022-10-16T15:23:53;3.72;;;0.50;;
68803;SDS011;55787;52.678;13.314;2022-10-16T15:26:19;6.47;;;0.70;;
68803;SDS011;55787;52.678;13.314;2022-10-16T15:28:46;4.55;;;0.60;;
68803;SDS011;55787;52.678;13.314;2022-10-16T15:31:13;4.70;;;0.60;;
68803;SDS011;55787;52.678;13.314;2022-10-16T15:33:39;3.33;;;0.52;;
68803;SDS011;55787;52.678;13.314;2022-10-16T15:36:06;5.72;;;0.70;;
68803;SDS011;55787;52.678;13.314;2022-10-16T15:38:37;4.97;;;0.83;;
68803;SDS011;55787;52.678;13.314;2022-10-16T15:41:12;4.47;;;0.55;;
68803;SDS011;55787;52.678;13.314;2022-10-16T15:43:39;4.15;;;0.60;;
68803;SDS011;55787;52.678;13.314;2022-10-16T15:46:06;4.70;;;0.70;;
68803;SDS011;55787;52.678;13.314;2022-10-16T15:48:40;5.75;;;0.82;;
68803;SDS011;55787;52.678;13.314;2022-10-16T15:51:07;5.60;;;1.10;;
68803;SDS011;55787;52.678;13.314;2022-10-16T15:53:34;5.60;;;1.10;;
68803;SDS011;55787;52.678;13.314;2022-10-16T15:56:05;5.82;;;0.80;;
68803;SDS011;55787;52.678;13.314;2022-10-16T15:58:32;5.07;;;0.80;;
68803;SDS011;55787;52.678;13.314;2022-10-16T16:01:00;4.43;;;0.75;;
68803;SDS011;55787;52.678;13.314;2022-10-16T16:03:28;5.77;;;0.90;;
68803;SDS011;55787;52.678;13.314;2022-10-16T16:05:55;5.30;;;1.20;;
68803;SDS011;55787;52.678;13.314;2022-10-16T16:08:22;7.22;;;1.30;;
68803;SDS011;55787;52.678;13.314;2022-10-16T16:11:07;4.72;;;1.00;;
68803;SDS011;55787;52.678;13.314;2022-10-16T16:13:35;5.80;;;1.05;;
68803;SDS011;55787;52.678;13.314;2022-10-16T16:16:12;5.23;;;1.10;;
68803;SDS011;55787;52.678;13.314;2022-10-16T16:18:40;7.28;;;1.40;;
68803;SDS011;55787;52.678;13.314;2022-10-16T16:21:08;5.55;;;1.38;;
68803;SDS011;55787;52.678;13.314;2022-10-16T16:23:37;5.55;;;1.30;;
68803;SDS011;55787;52.678;13.314;2022-10-16T16:26:04;6.78;;;2.10;;
68803;SDS011;55787;52.678;13.314;2022-10-16T16:28:39;7.07;;;2.40;;
68803;SDS011;55787;52.678;13.314;2022-10-16T16:31:07;7.65;;;2.58;;
68803;SDS011;55787;52.678;13.314;2022-10-16T16:33:34;8.90;;;3.50;;
68803;SDS011;55787;52.678;13.314;2022-10-16T16:36:02;11.38;;;6.28;;
68803;SDS011;55787;52.678;13.314;2022-10-16T16:38:34;14.18;;;7.72;;
68803;SDS011;55787;52.678;13.314;2022-10-16T16:41:10;14.70;;;7.73;;
68803;SDS011;55787;52.678;13.314;2022-10-16T16:43:44;14.50;;;7.00;;
68803;SDS011;55787;52.678;13.314;2022-10-16T16:46:11;15.43;;;7.72;;
68803;SDS011;55787;52.678;13.314;2022-10-16T16:48:37;16.95;;;8.23;;
68803;SDS011;55787;52.678;13.314;2022-10-16T16:51:05;16.10;;;8.02;;